sensor_id;sensor_type;location;lat;lon;timestamp;temperature;humidity
5960;DHT22;3006;50.956;7.002;2023-11-19T00:01:17;9.30;99.90
5960;DHT22;3006;50.956;7.002;2023-11-19T00:03:45;9.30;99.90
5960;DHT22;3006;50.956;7.002;2023-11-19T00:06:17;9.40;99.90
5960;DHT22;3006;50.956;7.002;2023-11-19T00:08:46;9.40;99.90
5960;DHT22;3006;50.956;7.002;2023-11-19T00:11:14;9.40;99.90
5960;DHT22;3006;50.956;7.002;2023-11-19T00:13:43;9.30;99.90
5960;DHT22;3006;50.956;7.002;2023-11-19T00:16:11;9.40;99.90
5960;DHT22;3006;50.956;7.002;2023-11-19T00:18:39;9.40;99.90
5960;DHT22;3006;50.956;7.002;2023-11-19T00:21:07;9.40;99.90
5960;DHT22;3006;50.956;7.002;2023-11-19T00:23:36;9.40;99.90
5960;DHT22;3006;50.956;7.002;2023-11-19T00:26:06;9.40;99.90
5960;DHT22;3006;50.956;7.002;2023-11-19T00:28:36;9.50;99.90
5960;DHT22;3006;50.956;7.002;2023-11-19T00:31:05;9.50;99.90
5960;DHT22;3006;50.956;7.002;2023-11-19T00:33:34;9.50;99.90
5960;DHT22;3006;50.956;7.002;2023-11-19T00:36:16;9.60;99.90
5960;DHT22;3006;50.956;7.002;2023-11-19T00:38:44;9.60;99.90
5960;DHT22;3006;50.956;7.002;2023-11-19T00:41:15;9.60;99.90
5960;DHT22;3006;50.956;7.002;2023-11-19T00:43:43;9.70;99.90
5960;DHT22;3006;50.956;7.002;2023-11-19T00:46:12;9.70;99.90
5960;DHT22;3006;50.956;7.002;2023-11-19T00:48:40;9.80;99.90
5960;DHT22;3006;50.956;7.002;2023-11-19T00:51:11;9.80;99.90
5960;DHT22;3006;50.956;7.002;2023-11-19T00:53:39;9.90;99.90
5960;DHT22;3006;50.956;7.002;2023-11-19T00:56:08;9.90;99.90
5960;DHT22;3006;50.956;7.002;2023-11-19T00:58:40;9.80;99.90
5960;DHT22;3006;50.956;7.002;2023-11-19T01:01:09;9.70;99.90
5960;DHT22;3006;50.956;7.002;2023-11-19T01:03:37;9.80;99.90
5960;DHT22;3006;50.956;7.002;2023-11-19T01:06:06;9.80;99.90
5960;DHT22;3006;50.956;7.002;2023-11-19T01:08:36;9.90;99.90
5960;DHT22;3006;50.956;7.002;2023-11-19T01:11:04;9.90;99.90
5960;DHT22;3006;50.956;7.002;2023-11-19T01:13:32;10.00;99.90
5960;DHT22;3006;50.956;7.002;2023-11-19T01:16:02;10.00;99.90
5960;DHT22;3006;50.956;7.002;2023-11-19T01:18:30;10.00;99.90
5960;DHT22;3006;50.956;7.002;2023-11-19T01:20:59;9.90;99.90
5960;DHT22;3006;50.956;7.002;2023-11-19T01:23:27;10.00;99.90
5960;DHT22;3006;50.956;7.002;2023-11-19T01:25:55;10.00;99.90
5960;DHT22;3006;50.956;7.002;2023-11-19T01:28:23;10.00;99.90
5960;DHT22;3006;50.956;7.002;2023-11-19T01:30:51;10.00;99.90
5960;DHT22;3006;50.956;7.002;2023-11-19T01:33:21;10.00;99.90
5960;DHT22;3006;50.956;7.002;2023-11-19T01:35:49;10.00;99.90
5960;DHT22;3006;50.956;7.002;2023-11-19T01:38:17;10.00;99.90
5960;DHT22;3006;50.956;7.002;2023-11-19T01:40:45;10.00;99.90
5960;DHT22;3006;50.956;7.002;2023-11-19T01:43:31;10.00;99.90
5960;DHT22;3006;50.956;7.002;2023-11-19T01:46:00;10.00;99.90
5960;DHT22;3006;50.956;7.002;2023-11-19T01:48:30;10.10;99.90
5960;DHT22;3006;50.956;7.002;2023-11-19T01:51:00;10.00;99.90
5960;DHT22;3006;50.956;7.002;2023-11-19T01:53:30;10.10;99.90
5960;DHT22;3006;50.956;7.002;2023-11-19T01:55:59;10.10;99.90
5960;DHT22;3006;50.956;7.002;2023-11-19T01:58:28;10.10;99.90
5960;DHT22;3006;50.956;7.002;2023-11-19T02:00:57;10.10;99.90
5960;DHT22;3006;50.956;7.002;2023-11-19T02:03:26;10.00;99.90
5960;DHT22;3006;50.956;7.002;2023-11-19T02:05:57;10.00;99.90
5960;DHT22;3006;50.956;7.002;2023-11-19T02:08:26;10.10;99.90
5960;DHT22;3006;50.956;7.002;2023-11-19T02:10:54;10.30;99.90
5960;DHT22;3006;50.956;7.002;2023-11-19T02:13:24;10.30;99.90
5960;DHT22;3006;50.956;7.002;2023-11-19T02:15:52;10.40;99.90
5960;DHT22;3006;50.956;7.002;2023-11-19T02:18:22;10.40;99.90
5960;DHT22;3006;50.956;7.002;2023-11-19T02:20:55;10.40;99.90
5960;DHT22;3006;50.956;7.002;2023-11-19T02:23:25;10.60;99.90
5960;DHT22;3006;50.956;7.002;2023-11-19T02:26:05;10.80;99.90
5960;DHT22;3006;50.956;7.002;2023-11-19T02:28:37;10.90;99.90
5960;DHT22;3006;50.956;7.002;2023-11-19T02:31:05;11.00;99.90
5960;DHT22;3006;50.956;7.002;2023-11-19T02:33:36;10.90;99.90
5960;DHT22;3006;50.956;7.002;2023-11-19T02:36:05;11.00;99.90
5960;DHT22;3006;50.956;7.002;2023-11-19T02:38:35;11.10;99.90
5960;DHT22;3006;50.956;7.002;2023-11-19T02:41:04;11.10;99.90
5960;DHT22;3006;50.956;7.002;2023-11-19T02:43:33;11.30;99.90
5960;DHT22;3006;50.956;7.002;2023-11-19T02:46:03;11.40;99.90
5960;DHT22;3006;50.956;7.002;2023-11-19T02:48:37;11.30;99.90
5960;DHT22;3006;50.956;7.002;2023-11-19T02:51:07;11.30;99.90
5960;DHT22;3006;50.956;7.002;2023-11-19T02:53:36;11.20;99.90
5960;DHT22;3006;50.956;7.002;2023-11-19T02:56:07;11.30;99.90
5960;DHT22;3006;50.956;7.002;2023-11-19T02:58:46;11.30;99.90
5960;DHT22;3006;50.956;7.002;2023-11-19T03:01:23;11.30;99.90
5960;DHT22;3006;50.956;7.002;2023-11-19T03:03:58;11.20;99.90
5960;DHT22;3006;50.956;7.002;2023-11-19T03:06:28;11.10;99.90
5960;DHT22;3006;50.956;7.002;2023-11-19T03:08:57;11.10;99.90
5960;DHT22;3006;50.956;7.002;2023-11-19T03:11:25;11.10;99.90
5960;DHT22;3006;50.956;7.002;2023-11-19T03:13:53;11.10;99.90
5960;DHT22;3006;50.956;7.002;2023-11-19T03:16:23;11.10;99.90
5960;DHT22;3006;50.956;7.002;2023-11-19T03:18:51;11.10;99.90
5960;DHT22;3006;50.956;7.002;2023-11-19T03:21:19;11.10;99.90
5960;DHT22;3006;50.956;7.002;2023-11-19T03:23:54;11.10;99.90
5960;DHT22;3006;50.956;7.002;2023-11-19T03:26:22;11.20;99.90
5960;DHT22;3006;50.956;7.002;2023-11-19T03:28:50;11.30;99.90
5960;DHT22;3006;50.956;7.002;2023-11-19T03:31:18;11.40;99.90
5960;DHT22;3006;50.956;7.002;2023-11-19T03:33:48;11.40;99.90
5960;DHT22;3006;50.956;7.002;2023-11-19T03:36:17;11.30;99.90
5960;DHT22;3006;50.956;7.002;2023-11-19T03:38:45;11.40;99.90
5960;DHT22;3006;50.956;7.002;2023-11-19T03:41:14;11.40;99.90
5960;DHT22;3006;50.956;7.002;2023-11-19T03:43:42;11.50;99.90
5960;DHT22;3006;50.956;7.002;2023-11-19T03:46:18;11.50;99.90
5960;DHT22;3006;50.956;7.002;2023-11-19T03:48:49;11.50;99.90
5960;DHT22;3006;50.956;7.002;2023-11-19T03:51:18;11.60;99.90
5960;DHT22;3006;50.956;7.002;2023-11-19T03:53:46;11.50;99.90
5960;DHT22;3006;50.956;7.002;2023-11-19T03:56:14;11.50;99.90
5960;DHT22;3006;50.956;7.002;2023-11-19T03:58:42;11.50;99.90
5960;DHT22;3006;50.956;7.002;2023-11-19T04:01:11;11.50;99.90
5960;DHT22;3006;50.956;7.002;2023-11-19T04:03:41;11.50;99.90
5960;DHT22;3006;50.956;7.002;2023-11-19T04:06:13;11.60;99.90
5960;DHT22;3006;50.956;7.002;2023-11-19T04:08:41;11.50;99.90
5960;DHT22;3006;50.956;7.002;2023-11-19T04:11:10;11.60;99.90
5960;DHT22;3006;50.956;7.002;2023-11-19T04:13:38;11.50;99.90
5960;DHT22;3006;50.956;7.002;2023-11-19T04:16:07;11.50;99.90
5960;DHT22;3006;50.956;7.002;2023-11-19T04:18:35;11.60;99.90
5960;DHT22;3006;50.956;7.002;2023-11-19T04:21:06;11.70;99.90
5960;DHT22;3006;50.956;7.002;2023-11-19T04:23:35;11.70;99.90
5960;DHT22;3006;50.956;7.002;2023-11-19T04:26:04;11.70;99.90
5960;DHT22;3006;50.956;7.002;2023-11-19T04:28:36;11.70;99.90
5960;DHT22;3006;50.956;7.002;2023-11-19T04:31:04;11.70;99.90
5960;DHT22;3006;50.956;7.002;2023-11-19T04:33:33;11.70;99.90
5960;DHT22;3006;50.956;7.002;2023-11-19T04:36:01;11.70;99.90
5960;DHT22;3006;50.956;7.002;2023-11-19T04:38:30;11.70;99.90
5960;DHT22;3006;50.956;7.002;2023-11-19T04:41:00;11.70;99.90
5960;DHT22;3006;50.956;7.002;2023-11-19T04:43:29;11.70;99.60
5960;DHT22;3006;50.956;7.002;2023-11-19T04:45:57;11.80;99.20
5960;DHT22;3006;50.956;7.002;2023-11-19T04:48:25;11.80;99.10
5960;DHT22;3006;50.956;7.002;2023-11-19T04:50:53;11.90;98.80
5960;DHT22;3006;50.956;7.002;2023-11-19T04:53:21;11.80;99.00
5960;DHT22;3006;50.956;7.002;2023-11-19T04:55:49;11.80;99.10
5960;DHT22;3006;50.956;7.002;2023-11-19T04:58:19;11.80;98.80
5960;DHT22;3006;50.956;7.002;2023-11-19T05:00:48;11.80;98.70
5960;DHT22;3006;50.956;7.002;2023-11-19T05:03:16;11.70;98.90
5960;DHT22;3006;50.956;7.002;2023-11-19T05:05:44;11.80;98.50
5960;DHT22;3006;50.956;7.002;2023-11-19T05:08:13;11.70;98.70
5960;DHT22;3006;50.956;7.002;2023-11-19T05:10:41;11.70;98.90
5960;DHT22;3006;50.956;7.002;2023-11-19T05:13:09;11.70;98.90
5960;DHT22;3006;50.956;7.002;2023-11-19T05:15:38;11.70;99.00
5960;DHT22;3006;50.956;7.002;2023-11-19T05:18:07;11.70;99.10
5960;DHT22;3006;50.956;7.002;2023-11-19T05:20:35;11.70;98.80
5960;DHT22;3006;50.956;7.002;2023-11-19T05:23:03;11.80;97.50
5960;DHT22;3006;50.956;7.002;2023-11-19T05:25:31;11.70;97.70
5960;DHT22;3006;50.956;7.002;2023-11-19T05:28:00;11.60;98.20
5960;DHT22;3006;50.956;7.002;2023-11-19T05:30:28;11.50;98.40
5960;DHT22;3006;50.956;7.002;2023-11-19T05:32:57;11.50;98.40
5960;DHT22;3006;50.956;7.002;2023-11-19T05:35:26;11.50;97.90
5960;DHT22;3006;50.956;7.002;2023-11-19T05:37:54;11.50;97.40
5960;DHT22;3006;50.956;7.002;2023-11-19T05:40:22;11.50;96.60
5960;DHT22;3006;50.956;7.002;2023-11-19T05:42:51;11.50;96.30
5960;DHT22;3006;50.956;7.002;2023-11-19T05:45:19;11.50;96.20
5960;DHT22;3006;50.956;7.002;2023-11-19T05:47:47;11.50;96.00
5960;DHT22;3006;50.956;7.002;2023-11-19T05:50:16;11.50;95.50
5960;DHT22;3006;50.956;7.002;2023-11-19T05:52:44;11.50;95.30
5960;DHT22;3006;50.956;7.002;2023-11-19T05:55:13;11.50;95.50
5960;DHT22;3006;50.956;7.002;2023-11-19T05:57:41;11.40;95.70
5960;DHT22;3006;50.956;7.002;2023-11-19T06:00:13;11.50;94.20
5960;DHT22;3006;50.956;7.002;2023-11-19T06:02:42;11.50;94.40
5960;DHT22;3006;50.956;7.002;2023-11-19T06:05:11;11.40;94.60
5960;DHT22;3006;50.956;7.002;2023-11-19T06:07:41;11.30;95.30
5960;DHT22;3006;50.956;7.002;2023-11-19T06:10:09;11.30;95.10
5960;DHT22;3006;50.956;7.002;2023-11-19T06:12:39;11.30;94.90
5960;DHT22;3006;50.956;7.002;2023-11-19T06:15:09;11.30;94.50
5960;DHT22;3006;50.956;7.002;2023-11-19T06:17:37;11.30;94.30
5960;DHT22;3006;50.956;7.002;2023-11-19T06:20:06;11.30;94.20
5960;DHT22;3006;50.956;7.002;2023-11-19T06:22:35;11.30;94.50
5960;DHT22;3006;50.956;7.002;2023-11-19T06:25:05;11.30;94.20
5960;DHT22;3006;50.956;7.002;2023-11-19T06:27:35;11.30;93.90
5960;DHT22;3006;50.956;7.002;2023-11-19T06:30:03;11.30;93.70
5960;DHT22;3006;50.956;7.002;2023-11-19T06:32:32;11.30;94.00
5960;DHT22;3006;50.956;7.002;2023-11-19T06:35:01;11.30;93.90
5960;DHT22;3006;50.956;7.002;2023-11-19T06:37:31;11.30;93.30
5960;DHT22;3006;50.956;7.002;2023-11-19T06:39:59;11.30;93.40
5960;DHT22;3006;50.956;7.002;2023-11-19T06:42:29;11.40;93.20
5960;DHT22;3006;50.956;7.002;2023-11-19T06:44:57;11.30;93.30
5960;DHT22;3006;50.956;7.002;2023-11-19T06:47:26;11.30;93.40
5960;DHT22;3006;50.956;7.002;2023-11-19T06:49:54;11.20;94.10
5960;DHT22;3006;50.956;7.002;2023-11-19T06:52:23;11.30;93.80
5960;DHT22;3006;50.956;7.002;2023-11-19T06:54:51;11.30;93.60
5960;DHT22;3006;50.956;7.002;2023-11-19T06:57:34;11.30;93.90
5960;DHT22;3006;50.956;7.002;2023-11-19T07:00:03;11.30;93.90
5960;DHT22;3006;50.956;7.002;2023-11-19T07:02:32;11.30;93.60
5960;DHT22;3006;50.956;7.002;2023-11-19T07:05:01;11.30;93.20
5960;DHT22;3006;50.956;7.002;2023-11-19T07:07:31;11.30;93.00
5960;DHT22;3006;50.956;7.002;2023-11-19T07:09:59;11.30;93.10
5960;DHT22;3006;50.956;7.002;2023-11-19T07:12:29;11.30;92.60
5960;DHT22;3006;50.956;7.002;2023-11-19T07:14:58;11.30;93.20
5960;DHT22;3006;50.956;7.002;2023-11-19T07:17:27;11.30;93.00
5960;DHT22;3006;50.956;7.002;2023-11-19T07:19:55;11.20;93.30
5960;DHT22;3006;50.956;7.002;2023-11-19T07:22:26;11.30;92.60
5960;DHT22;3006;50.956;7.002;2023-11-19T07:24:56;11.30;92.80
5960;DHT22;3006;50.956;7.002;2023-11-19T07:27:25;11.30;93.00
5960;DHT22;3006;50.956;7.002;2023-11-19T07:29:54;11.30;92.90
5960;DHT22;3006;50.956;7.002;2023-11-19T07:32:24;11.40;92.50
5960;DHT22;3006;50.956;7.002;2023-11-19T07:34:52;11.30;92.90
5960;DHT22;3006;50.956;7.002;2023-11-19T07:37:20;11.30;93.20
5960;DHT22;3006;50.956;7.002;2023-11-19T07:39:49;11.30;93.00
5960;DHT22;3006;50.956;7.002;2023-11-19T07:42:17;11.40;92.80
5960;DHT22;3006;50.956;7.002;2023-11-19T07:44:45;11.40;92.00
5960;DHT22;3006;50.956;7.002;2023-11-19T07:47:13;11.40;91.90
5960;DHT22;3006;50.956;7.002;2023-11-19T07:49:43;11.40;92.20
5960;DHT22;3006;50.956;7.002;2023-11-19T07:52:11;11.30;91.90
5960;DHT22;3006;50.956;7.002;2023-11-19T07:54:42;11.40;91.90
5960;DHT22;3006;50.956;7.002;2023-11-19T07:57:11;11.40;91.20
5960;DHT22;3006;50.956;7.002;2023-11-19T07:59:39;11.40;91.20
5960;DHT22;3006;50.956;7.002;2023-11-19T08:02:08;11.50;91.10
5960;DHT22;3006;50.956;7.002;2023-11-19T08:04:36;11.30;91.60
5960;DHT22;3006;50.956;7.002;2023-11-19T08:07:08;11.30;91.50
5960;DHT22;3006;50.956;7.002;2023-11-19T08:09:36;11.30;91.30
5960;DHT22;3006;50.956;7.002;2023-11-19T08:12:05;11.40;91.20
5960;DHT22;3006;50.956;7.002;2023-11-19T08:14:34;11.40;91.20
5960;DHT22;3006;50.956;7.002;2023-11-19T08:17:03;11.40;91.60
5960;DHT22;3006;50.956;7.002;2023-11-19T08:19:31;11.40;91.20
5960;DHT22;3006;50.956;7.002;2023-11-19T08:21:59;11.40;91.70
5960;DHT22;3006;50.956;7.002;2023-11-19T08:24:29;11.50;91.50
5960;DHT22;3006;50.956;7.002;2023-11-19T08:26:57;11.50;91.40
5960;DHT22;3006;50.956;7.002;2023-11-19T08:29:29;11.50;91.60
5960;DHT22;3006;50.956;7.002;2023-11-19T08:31:58;11.70;91.30
5960;DHT22;3006;50.956;7.002;2023-11-19T08:34:29;11.70;91.50
5960;DHT22;3006;50.956;7.002;2023-11-19T08:36:57;11.70;91.10
5960;DHT22;3006;50.956;7.002;2023-11-19T08:39:25;11.70;91.00
5960;DHT22;3006;50.956;7.002;2023-11-19T08:41:55;11.80;91.10
5960;DHT22;3006;50.956;7.002;2023-11-19T08:44:23;11.80;90.40
5960;DHT22;3006;50.956;7.002;2023-11-19T08:46:52;11.90;90.00
5960;DHT22;3006;50.956;7.002;2023-11-19T08:49:20;11.90;89.60
5960;DHT22;3006;50.956;7.002;2023-11-19T08:51:50;11.90;89.40
5960;DHT22;3006;50.956;7.002;2023-11-19T08:54:18;11.90;89.10
5960;DHT22;3006;50.956;7.002;2023-11-19T08:56:47;11.90;89.30
5960;DHT22;3006;50.956;7.002;2023-11-19T08:59:16;12.00;89.10
5960;DHT22;3006;50.956;7.002;2023-11-19T09:01:45;12.20;87.40
5960;DHT22;3006;50.956;7.002;2023-11-19T09:04:15;12.10;87.60
5960;DHT22;3006;50.956;7.002;2023-11-19T09:06:44;12.10;87.20
5960;DHT22;3006;50.956;7.002;2023-11-19T09:09:12;12.10;87.00
5960;DHT22;3006;50.956;7.002;2023-11-19T09:11:40;12.20;87.00
5960;DHT22;3006;50.956;7.002;2023-11-19T09:14:09;12.20;86.40
5960;DHT22;3006;50.956;7.002;2023-11-19T09:16:38;12.30;86.40
5960;DHT22;3006;50.956;7.002;2023-11-19T09:19:06;12.30;85.00
5960;DHT22;3006;50.956;7.002;2023-11-19T09:21:35;12.40;85.20
5960;DHT22;3006;50.956;7.002;2023-11-19T09:24:05;12.40;85.70
5960;DHT22;3006;50.956;7.002;2023-11-19T09:26:34;12.40;85.40
5960;DHT22;3006;50.956;7.002;2023-11-19T09:29:06;12.50;85.50
5960;DHT22;3006;50.956;7.002;2023-11-19T09:31:34;12.50;83.70
5960;DHT22;3006;50.956;7.002;2023-11-19T09:34:04;12.50;84.10
5960;DHT22;3006;50.956;7.002;2023-11-19T09:36:32;12.50;84.30
5960;DHT22;3006;50.956;7.002;2023-11-19T09:39:00;12.50;84.10
5960;DHT22;3006;50.956;7.002;2023-11-19T09:41:30;12.50;84.40
5960;DHT22;3006;50.956;7.002;2023-11-19T09:43:58;12.50;84.40
5960;DHT22;3006;50.956;7.002;2023-11-19T09:46:26;12.50;84.30
5960;DHT22;3006;50.956;7.002;2023-11-19T09:48:57;12.70;84.10
5960;DHT22;3006;50.956;7.002;2023-11-19T09:51:28;12.80;84.00
5960;DHT22;3006;50.956;7.002;2023-11-19T09:53:56;12.80;82.70
5960;DHT22;3006;50.956;7.002;2023-11-19T09:56:25;12.80;83.00
5960;DHT22;3006;50.956;7.002;2023-11-19T09:58:54;12.70;83.00
5960;DHT22;3006;50.956;7.002;2023-11-19T10:01:22;12.70;82.70
5960;DHT22;3006;50.956;7.002;2023-11-19T10:03:55;12.80;82.90
5960;DHT22;3006;50.956;7.002;2023-11-19T10:06:25;12.80;83.30
5960;DHT22;3006;50.956;7.002;2023-11-19T10:08:55;12.80;82.10
5960;DHT22;3006;50.956;7.002;2023-11-19T10:11:23;12.70;82.70
5960;DHT22;3006;50.956;7.002;2023-11-19T10:13:53;12.80;82.40
5960;DHT22;3006;50.956;7.002;2023-11-19T10:16:28;12.80;82.00
5960;DHT22;3006;50.956;7.002;2023-11-19T10:18:57;12.80;82.10
5960;DHT22;3006;50.956;7.002;2023-11-19T10:21:25;12.90;81.50
5960;DHT22;3006;50.956;7.002;2023-11-19T10:23:56;13.00;81.70
5960;DHT22;3006;50.956;7.002;2023-11-19T10:26:27;13.10;81.50
5960;DHT22;3006;50.956;7.002;2023-11-19T10:28:56;13.10;80.90
5960;DHT22;3006;50.956;7.002;2023-11-19T10:31:24;13.10;81.20
5960;DHT22;3006;50.956;7.002;2023-11-19T10:33:53;13.10;81.20
5960;DHT22;3006;50.956;7.002;2023-11-19T10:36:26;13.10;81.20
5960;DHT22;3006;50.956;7.002;2023-11-19T10:39:06;13.10;81.20
5960;DHT22;3006;50.956;7.002;2023-11-19T10:41:36;13.10;80.80
5960;DHT22;3006;50.956;7.002;2023-11-19T10:44:04;13.10;81.50
5960;DHT22;3006;50.956;7.002;2023-11-19T10:46:37;13.10;80.90
5960;DHT22;3006;50.956;7.002;2023-11-19T10:49:06;13.10;80.70
5960;DHT22;3006;50.956;7.002;2023-11-19T10:51:34;13.10;79.70
5960;DHT22;3006;50.956;7.002;2023-11-19T10:54:04;13.10;79.30
5960;DHT22;3006;50.956;7.002;2023-11-19T10:56:34;13.10;79.40
5960;DHT22;3006;50.956;7.002;2023-11-19T10:59:03;13.10;79.70
5960;DHT22;3006;50.956;7.002;2023-11-19T11:01:52;13.10;79.70
5960;DHT22;3006;50.956;7.002;2023-11-19T11:04:23;13.10;80.00
5960;DHT22;3006;50.956;7.002;2023-11-19T11:06:54;13.10;80.10
5960;DHT22;3006;50.956;7.002;2023-11-19T11:09:26;13.10;79.60
5960;DHT22;3006;50.956;7.002;2023-11-19T11:11:56;13.00;78.90
5960;DHT22;3006;50.956;7.002;2023-11-19T11:14:27;13.00;77.80
5960;DHT22;3006;50.956;7.002;2023-11-19T11:16:56;13.00;77.90
5960;DHT22;3006;50.956;7.002;2023-11-19T11:19:26;12.90;78.10
5960;DHT22;3006;50.956;7.002;2023-11-19T11:21:55;12.90;79.00
5960;DHT22;3006;50.956;7.002;2023-11-19T11:24:46;12.90;80.70
5960;DHT22;3006;50.956;7.002;2023-11-19T11:30:46;12.90;81.40
5960;DHT22;3006;50.956;7.002;2023-11-19T11:33:26;12.80;81.80
5960;DHT22;3006;50.956;7.002;2023-11-19T11:36:06;12.90;81.40
5960;DHT22;3006;50.956;7.002;2023-11-19T11:38:40;12.90;81.20
5960;DHT22;3006;50.956;7.002;2023-11-19T11:41:16;12.90;80.40
5960;DHT22;3006;50.956;7.002;2023-11-19T11:43:47;13.00;80.20
5960;DHT22;3006;50.956;7.002;2023-11-19T11:46:54;13.00;80.00
5960;DHT22;3006;50.956;7.002;2023-11-19T11:49:27;13.00;77.50
5960;DHT22;3006;50.956;7.002;2023-11-19T11:52:03;12.90;78.10
5960;DHT22;3006;50.956;7.002;2023-11-19T11:54:32;12.90;77.30
5960;DHT22;3006;50.956;7.002;2023-11-19T11:57:03;12.90;77.00
5960;DHT22;3006;50.956;7.002;2023-11-19T11:59:37;12.90;76.80
5960;DHT22;3006;50.956;7.002;2023-11-19T12:02:08;12.90;77.10
5960;DHT22;3006;50.956;7.002;2023-11-19T12:04:36;13.00;77.70
5960;DHT22;3006;50.956;7.002;2023-11-19T12:07:06;13.10;77.50
5960;DHT22;3006;50.956;7.002;2023-11-19T12:09:34;13.30;77.50
5960;DHT22;3006;50.956;7.002;2023-11-19T12:12:19;13.50;77.10
5960;DHT22;3006;50.956;7.002;2023-11-19T12:15:07;13.40;77.10
5960;DHT22;3006;50.956;7.002;2023-11-19T12:17:47;13.50;77.40
5960;DHT22;3006;50.956;7.002;2023-11-19T12:20:19;13.30;76.70
5960;DHT22;3006;50.956;7.002;2023-11-19T12:22:51;13.40;77.30
5960;DHT22;3006;50.956;7.002;2023-11-19T12:25:19;13.40;77.70
5960;DHT22;3006;50.956;7.002;2023-11-19T12:27:50;13.30;77.30
5960;DHT22;3006;50.956;7.002;2023-11-19T12:30:21;13.40;77.70
5960;DHT22;3006;50.956;7.002;2023-11-19T12:32:52;13.50;77.70
5960;DHT22;3006;50.956;7.002;2023-11-19T12:35:22;13.30;77.70
5960;DHT22;3006;50.956;7.002;2023-11-19T12:37:52;13.30;78.10
5960;DHT22;3006;50.956;7.002;2023-11-19T12:40:21;13.40;78.30
5960;DHT22;3006;50.956;7.002;2023-11-19T12:42:51;13.40;78.00
5960;DHT22;3006;50.956;7.002;2023-11-19T12:45:19;13.30;77.60
5960;DHT22;3006;50.956;7.002;2023-11-19T12:47:51;13.30;77.50
5960;DHT22;3006;50.956;7.002;2023-11-19T12:50:49;13.30;77.90
5960;DHT22;3006;50.956;7.002;2023-11-19T12:53:18;13.20;78.20
5960;DHT22;3006;50.956;7.002;2023-11-19T12:55:46;13.20;78.20
5960;DHT22;3006;50.956;7.002;2023-11-19T12:58:30;13.10;78.10
5960;DHT22;3006;50.956;7.002;2023-11-19T13:01:03;13.10;78.20
5960;DHT22;3006;50.956;7.002;2023-11-19T13:03:35;13.10;78.40
5960;DHT22;3006;50.956;7.002;2023-11-19T13:06:04;13.10;78.70
5960;DHT22;3006;50.956;7.002;2023-11-19T13:08:38;13.10;79.10
5960;DHT22;3006;50.956;7.002;2023-11-19T13:11:07;13.10;79.80
5960;DHT22;3006;50.956;7.002;2023-11-19T13:13:54;13.30;79.20
5960;DHT22;3006;50.956;7.002;2023-11-19T13:16:22;13.30;78.90
5960;DHT22;3006;50.956;7.002;2023-11-19T13:18:52;13.10;79.20
5960;DHT22;3006;50.956;7.002;2023-11-19T13:21:20;13.10;79.70
5960;DHT22;3006;50.956;7.002;2023-11-19T13:23:48;13.10;80.10
5960;DHT22;3006;50.956;7.002;2023-11-19T13:26:17;13.10;80.10
5960;DHT22;3006;50.956;7.002;2023-11-19T13:28:45;13.20;79.50
5960;DHT22;3006;50.956;7.002;2023-11-19T13:31:13;13.10;79.50
5960;DHT22;3006;50.956;7.002;2023-11-19T13:33:42;13.10;79.90
5960;DHT22;3006;50.956;7.002;2023-11-19T13:36:11;13.10;80.50
5960;DHT22;3006;50.956;7.002;2023-11-19T13:38:43;13.10;80.20
5960;DHT22;3006;50.956;7.002;2023-11-19T13:41:12;13.10;80.00
5960;DHT22;3006;50.956;7.002;2023-11-19T13:43:40;13.10;80.00
5960;DHT22;3006;50.956;7.002;2023-11-19T13:46:09;13.20;79.80
5960;DHT22;3006;50.956;7.002;2023-11-19T13:48:38;13.30;79.70
5960;DHT22;3006;50.956;7.002;2023-11-19T13:51:06;13.30;78.80
5960;DHT22;3006;50.956;7.002;2023-11-19T13:53:38;13.30;79.00
5960;DHT22;3006;50.956;7.002;2023-11-19T13:56:09;13.30;78.50
5960;DHT22;3006;50.956;7.002;2023-11-19T13:58:37;13.30;78.40
5960;DHT22;3006;50.956;7.002;2023-11-19T14:01:06;13.30;78.00
5960;DHT22;3006;50.956;7.002;2023-11-19T14:03:35;13.30;77.70
5960;DHT22;3006;50.956;7.002;2023-11-19T14:06:04;13.30;77.80
5960;DHT22;3006;50.956;7.002;2023-11-19T14:08:33;13.30;77.90
5960;DHT22;3006;50.956;7.002;2023-11-19T14:11:03;13.30;77.20
5960;DHT22;3006;50.956;7.002;2023-11-19T14:13:31;13.30;76.50
5960;DHT22;3006;50.956;7.002;2023-11-19T14:15:59;13.30;76.50
5960;DHT22;3006;50.956;7.002;2023-11-19T14:18:28;13.20;76.60
5960;DHT22;3006;50.956;7.002;2023-11-19T14:20:56;13.10;76.40
5960;DHT22;3006;50.956;7.002;2023-11-19T14:23:25;13.10;76.50
5960;DHT22;3006;50.956;7.002;2023-11-19T14:25:54;13.10;76.30
5960;DHT22;3006;50.956;7.002;2023-11-19T14:28:24;13.10;76.00
5960;DHT22;3006;50.956;7.002;2023-11-19T14:30:53;13.10;75.70
5960;DHT22;3006;50.956;7.002;2023-11-19T14:33:24;13.10;75.60
5960;DHT22;3006;50.956;7.002;2023-11-19T14:35:52;13.10;75.50
5960;DHT22;3006;50.956;7.002;2023-11-19T14:38:20;13.10;75.80
5960;DHT22;3006;50.956;7.002;2023-11-19T14:40:48;13.10;76.30
5960;DHT22;3006;50.956;7.002;2023-11-19T14:43:17;13.10;75.50
5960;DHT22;3006;50.956;7.002;2023-11-19T14:45:46;13.10;75.70
5960;DHT22;3006;50.956;7.002;2023-11-19T14:48:16;13.10;76.00
5960;DHT22;3006;50.956;7.002;2023-11-19T14:50:45;13.10;75.90
5960;DHT22;3006;50.956;7.002;2023-11-19T14:53:13;13.10;76.50
5960;DHT22;3006;50.956;7.002;2023-11-19T14:55:42;13.10;77.40
5960;DHT22;3006;50.956;7.002;2023-11-19T14:58:10;13.10;78.00
5960;DHT22;3006;50.956;7.002;2023-11-19T15:00:43;13.10;78.20
5960;DHT22;3006;50.956;7.002;2023-11-19T15:03:13;13.00;78.30
5960;DHT22;3006;50.956;7.002;2023-11-19T15:05:43;12.90;78.20
5960;DHT22;3006;50.956;7.002;2023-11-19T15:08:12;12.90;77.70
5960;DHT22;3006;50.956;7.002;2023-11-19T15:10:42;12.90;78.00
5960;DHT22;3006;50.956;7.002;2023-11-19T15:13:11;12.80;77.60
5960;DHT22;3006;50.956;7.002;2023-11-19T15:15:40;12.90;77.40
5960;DHT22;3006;50.956;7.002;2023-11-19T15:18:09;12.80;77.50
5960;DHT22;3006;50.956;7.002;2023-11-19T15:20:38;12.80;77.00
5960;DHT22;3006;50.956;7.002;2023-11-19T15:23:07;12.80;77.00
5960;DHT22;3006;50.956;7.002;2023-11-19T15:25:36;12.70;76.90
5960;DHT22;3006;50.956;7.002;2023-11-19T15:28:04;12.70;76.90
5960;DHT22;3006;50.956;7.002;2023-11-19T15:30:33;12.70;76.70
5960;DHT22;3006;50.956;7.002;2023-11-19T15:33:01;12.70;76.90
5960;DHT22;3006;50.956;7.002;2023-11-19T15:35:29;12.70;77.70
5960;DHT22;3006;50.956;7.002;2023-11-19T15:37:58;12.60;78.20
5960;DHT22;3006;50.956;7.002;2023-11-19T15:40:27;12.50;79.10
5960;DHT22;3006;50.956;7.002;2023-11-19T15:42:55;12.50;80.80
5960;DHT22;3006;50.956;7.002;2023-11-19T15:45:24;12.30;82.00
5960;DHT22;3006;50.956;7.002;2023-11-19T15:47:52;12.30;82.40
5960;DHT22;3006;50.956;7.002;2023-11-19T15:50:22;12.20;83.30
5960;DHT22;3006;50.956;7.002;2023-11-19T15:52:50;12.20;83.30
5960;DHT22;3006;50.956;7.002;2023-11-19T15:55:19;12.20;83.20
5960;DHT22;3006;50.956;7.002;2023-11-19T15:57:48;12.10;83.00
5960;DHT22;3006;50.956;7.002;2023-11-19T16:00:17;12.10;82.60
5960;DHT22;3006;50.956;7.002;2023-11-19T16:02:48;12.10;82.10
5960;DHT22;3006;50.956;7.002;2023-11-19T16:05:17;12.20;81.20
5960;DHT22;3006;50.956;7.002;2023-11-19T16:07:45;12.20;81.40
5960;DHT22;3006;50.956;7.002;2023-11-19T16:10:13;12.20;81.40
5960;DHT22;3006;50.956;7.002;2023-11-19T16:12:43;12.10;81.50
5960;DHT22;3006;50.956;7.002;2023-11-19T16:15:11;12.10;81.20
5960;DHT22;3006;50.956;7.002;2023-11-19T16:17:41;12.20;80.80
5960;DHT22;3006;50.956;7.002;2023-11-19T16:20:10;12.20;80.20
5960;DHT22;3006;50.956;7.002;2023-11-19T16:22:40;12.10;80.40